Time;durP1;ratioP1;P1;durP2;ratioP2;P2;SDS_P1;SDS_P2;PMS_P1;PMS_P2;Temp;Humidity;BMP_temperature;BMP_pressure;BME280_temperature;BME280_humidity;BME280_pressure;Samples;Min_cycle;Max_cycle;Signal;HPM_P1;HPM_P2
2021/12/10 00:00:22;;;;;;;10.50;6.78;;;6.30;99.90;;;;;;5033244;28;20017;-74
2021/12/10 00:02:48;;;;;;;11.20;7.90;;;6.30;99.90;;;;;;5034195;28;20029;-73
2021/12/10 00:05:22;;;;;;;16.20;7.05;;;6.40;99.90;;;;;;5034563;28;20017;-74
2021/12/10 00:07:49;;;;;;;16.40;7.50;;;6.40;99.90;;;;;;5032808;28;20037;-73
2021/12/10 00:10:20;;;;;;;10.82;7.40;;;6.40;99.90;;;;;;5032316;28;20461;-74
2021/12/10 00:12:51;;;;;;;11.88;7.88;;;6.40;99.90;;;;;;5032516;28;20036;-73
2021/12/10 00:15:23;;;;;;;12.45;7.28;;;6.40;99.90;;;;;;5032725;28;20405;-75
2021/12/10 00:17:51;;;;;;;12.00;7.07;;;6.40;99.90;;;;;;5031641;28;20374;-72
2021/12/10 00:20:17;;;;;;;15.23;7.72;;;6.30;99.90;;;;;;5032935;28;20045;-76
2021/12/10 00:22:51;;;;;;;12.13;7.72;;;6.30;99.90;;;;;;5032156;28;20116;-74
2021/12/10 00:25:24;;;;;;;12.35;7.70;;;6.30;99.90;;;;;;5034074;28;20017;-74
2021/12/10 00:27:52;;;;;;;13.07;7.57;;;6.30;99.90;;;;;;5031965;28;20095;-73
2021/12/10 00:30:39;;;;;;;15.77;8.02;;;6.20;99.90;;;;;;5033815;28;20022;-75
2021/12/10 00:33:15;;;;;;;13.35;7.90;;;6.20;99.90;;;;;;5033915;28;20027;-74
2021/12/10 00:35:41;;;;;;;11.52;7.80;;;6.10;99.90;;;;;;5032781;28;20018;-73
2021/12/10 00:38:08;;;;;;;11.40;7.35;;;6.10;99.90;;;;;;5032956;28;20064;-73
2021/12/10 00:40:35;;;;;;;10.57;7.90;;;6.10;99.90;;;;;;5033421;28;20036;-73
2021/12/10 00:43:01;;;;;;;12.48;8.20;;;6.10;99.90;;;;;;5033647;28;20029;-73
2021/12/10 00:45:27;;;;;;;11.02;7.78;;;6.00;99.90;;;;;;5033702;28;20025;-72
2021/12/10 00:47:54;;;;;;;10.68;7.35;;;6.00;99.90;;;;;;5032811;28;20493;-73
2021/12/10 00:50:24;;;;;;;12.68;7.70;;;6.00;99.90;;;;;;5032729;28;20116;-74
2021/12/10 00:52:51;;;;;;;11.43;8.38;;;5.90;99.90;;;;;;5033434;28;20520;-74
2021/12/10 00:55:18;;;;;;;12.15;8.55;;;5.90;99.90;;;;;;5032887;28;20053;-74
2021/12/10 00:57:44;;;;;;;11.02;7.90;;;5.90;99.90;;;;;;5032867;28;20489;-76
2021/12/10 01:00:18;;;;;;;12.02;7.90;;;5.90;99.90;;;;;;5031559;28;20028;-73
2021/12/10 01:02:45;;;;;;;11.57;8.20;;;5.80;99.90;;;;;;5033163;28;20041;-75
2021/12/10 01:05:12;;;;;;;13.57;8.30;;;5.80;99.90;;;;;;5033413;28;20017;-74
2021/12/10 01:07:39;;;;;;;12.43;8.23;;;5.80;99.90;;;;;;5033125;28;20039;-73
2021/12/10 01:10:24;;;;;;;10.43;8.02;;;5.70;99.90;;;;;;5032938;28;20028;-73
2021/12/10 01:12:53;;;;;;;10.07;7.25;;;5.70;99.90;;;;;;5033115;28;20030;-76
2021/12/10 01:15:49;;;;;;;12.25;7.78;;;5.70;99.90;;;;;;5031657;28;20071;-76
2021/12/10 01:23:55;;;;;;;10.55;7.05;;;5.70;99.90;;;;;;5013229;28;20501;-74
2021/12/10 01:27:08;;;;;;;10.38;7.50;;;5.60;99.90;;;;;;5023325;28;20535;-74
2021/12/10 01:29:40;;;;;;;10.85;7.68;;;5.60;99.90;;;;;;5032243;28;20060;-76
2021/12/10 01:32:09;;;;;;;11.07;7.68;;;5.60;99.90;;;;;;5032244;28;20067;-75
2021/12/10 01:34:34;;;;;;;11.35;7.70;;;5.60;99.90;;;;;;5032844;28;20053;-73
2021/12/10 01:37:02;;;;;;;13.45;8.07;;;5.60;99.90;;;;;;5032742;28;20488;-74
2021/12/10 01:39:33;;;;;;;10.02;7.32;;;5.60;99.90;;;;;;5012973;28;20021;-73
2021/12/10 01:42:13;;;;;;;11.77;7.82;;;5.60;99.90;;;;;;5017766;28;20037;-73
2021/12/10 01:44:43;;;;;;;11.20;7.50;;;5.50;99.90;;;;;;5032457;28;20112;-75
2021/12/10 01:47:10;;;;;;;10.25;6.93;;;5.50;99.90;;;;;;5031140;28;20042;-73
2021/12/10 01:49:37;;;;;;;12.10;7.80;;;5.50;99.90;;;;;;5031987;28;20049;-74
2021/12/10 01:52:04;;;;;;;12.32;7.80;;;5.50;99.90;;;;;;5032031;28;20068;-73
2021/12/10 01:54:35;;;;;;;11.57;7.95;;;5.50;99.90;;;;;;5032483;28;20121;-74
2021/12/10 01:57:02;;;;;;;13.45;8.20;;;5.50;99.90;;;;;;5032606;28;20025;-73
2021/12/10 01:59:31;;;;;;;13.18;8.10;;;5.40;99.90;;;;;;5032544;28;20057;-72
2021/12/10 02:02:05;;;;;;;10.90;7.82;;;5.40;99.90;;;;;;5032310;28;20061;-72
2021/12/10 02:04:34;;;;;;;12.27;8.27;;;5.40;99.90;;;;;;5032118;28;20109;-72
2021/12/10 02:07:00;;;;;;;11.90;7.95;;;5.40;99.90;;;;;;5036019;28;20026;-73
2021/12/10 02:09:27;;;;;;;12.68;7.95;;;5.40;99.90;;;;;;5036438;28;20053;-73
2021/12/10 02:11:53;;;;;;;10.88;8.20;;;5.30;99.90;;;;;;5036365;28;20022;-74
2021/12/10 02:14:19;;;;;;;12.43;8.23;;;5.30;99.90;;;;;;5036530;28;20044;-74
2021/12/10 02:16:45;;;;;;;10.85;7.57;;;5.30;99.90;;;;;;5035107;28;20028;-73
2021/12/10 02:19:13;;;;;;;12.85;8.85;;;5.30;99.90;;;;;;5036238;28;20391;-74
2021/12/10 02:21:40;;;;;;;12.27;8.05;;;5.30;99.90;;;;;;5036052;28;20034;-75
2021/12/10 02:24:07;;;;;;;11.50;8.48;;;5.30;99.90;;;;;;5036229;28;20025;-75
2021/12/10 02:26:45;;;;;;;10.00;7.35;;;5.20;99.90;;;;;;5036210;28;20028;-75
2021/12/10 02:29:12;;;;;;;12.23;8.30;;;5.20;99.90;;;;;;5036396;28;20030;-73
2021/12/10 02:31:37;;;;;;;12.50;7.63;;;5.20;99.90;;;;;;5036223;28;20454;-73
2021/12/10 02:34:04;;;;;;;9.25;7.60;;;5.20;99.90;;;;;;5035753;28;20040;-73
2021/12/10 02:36:30;;;;;;;10.35;7.72;;;5.10;99.90;;;;;;5035702;28;20041;-73
2021/12/10 02:38:57;;;;;;;11.65;7.28;;;5.10;99.90;;;;;;5036155;28;20021;-73
2021/12/10 02:41:31;;;;;;;10.35;7.38;;;5.10;99.90;;;;;;5036109;28;20018;-75
2021/12/10 02:43:58;;;;;;;10.98;7.45;;;5.00;99.90;;;;;;5036014;28;20474;-73
2021/12/10 02:46:24;;;;;;;10.18;7.50;;;5.00;99.90;;;;;;5035777;28;20057;-73
2021/12/10 02:48:50;;;;;;;12.15;7.20;;;5.00;99.90;;;;;;5035474;28;20037;-73
2021/12/10 02:51:17;;;;;;;9.52;7.15;;;5.00;99.90;;;;;;5035281;28;20027;-76
2021/12/10 02:53:45;;;;;;;11.80;7.78;;;5.00;99.90;;;;;;5035628;28;20037;-75
2021/12/10 02:56:20;;;;;;;10.75;6.90;;;4.90;99.90;;;;;;5034098;28;20021;-77
2021/12/10 02:58:49;;;;;;;11.00;7.28;;;5.00;99.90;;;;;;5035364;28;20021;-75
2021/12/10 03:01:32;;;;;;;12.23;7.65;;;4.90;99.90;;;;;;5035428;28;20596;-72
2021/12/10 03:03:59;;;;;;;9.65;6.85;;;4.90;99.90;;;;;;5035681;28;20034;-72
2021/12/10 03:06:27;;;;;;;13.43;8.25;;;4.80;99.90;;;;;;5035546;28;20079;-75
2021/12/10 03:08:53;;;;;;;12.80;8.23;;;4.80;99.90;;;;;;5035389;28;20033;-72
2021/12/10 03:11:31;;;;;;;9.50;6.93;;;4.70;99.90;;;;;;5035067;28;20026;-73
2021/12/10 03:13:57;;;;;;;10.10;7.05;;;4.70;99.90;;;;;;5035467;28;20028;-73
2021/12/10 03:16:23;;;;;;;8.82;6.72;;;4.70;99.90;;;;;;5034999;28;20494;-73
2021/12/10 03:18:50;;;;;;;10.05;6.60;;;4.60;99.90;;;;;;5034653;28;20381;-76
2021/12/10 03:21:16;;;;;;;13.55;6.47;;;4.70;99.90;;;;;;5034796;28;20040;-77
2021/12/10 03:23:45;;;;;;;9.98;6.63;;;4.70;99.90;;;;;;5033294;28;20596;-75
2021/12/10 03:26:20;;;;;;;9.80;6.63;;;4.70;99.90;;;;;;5033195;28;20132;-73
2021/12/10 03:28:47;;;;;;;11.20;6.80;;;4.80;99.90;;;;;;5034779;28;20114;-76
2021/12/10 03:31:14;;;;;;;8.50;6.15;;;4.80;99.90;;;;;;5034763;28;20017;-76
2021/12/10 03:33:41;;;;;;;8.40;5.97;;;4.80;99.90;;;;;;5034418;28;20036;-76
2021/12/10 03:36:09;;;;;;;7.97;5.57;;;4.80;99.90;;;;;;5034475;28;20028;-73
2021/12/10 03:38:37;;;;;;;11.55;6.72;;;4.80;99.90;;;;;;5034846;28;20470;-70
2021/12/10 03:41:03;;;;;;;9.23;6.25;;;4.70;99.90;;;;;;5034888;28;20037;-75
2021/12/10 03:43:29;;;;;;;10.50;6.70;;;4.60;99.90;;;;;;5034864;28;20482;-74
2021/12/10 03:45:57;;;;;;;8.27;6.65;;;4.60;99.90;;;;;;5034650;28;20101;-76
2021/12/10 03:48:32;;;;;;;9.77;6.72;;;4.60;99.90;;;;;;5034212;28;20053;-73
2021/12/10 03:51:01;;;;;;;8.90;6.10;;;4.60;99.90;;;;;;5034287;28;20097;-75
2021/12/10 03:53:27;;;;;;;9.23;6.70;;;4.60;99.90;;;;;;5033838;28;20429;-72
2021/12/10 03:56:00;;;;;;;9.88;6.47;;;4.60;99.90;;;;;;5034463;28;20044;-75
2021/12/10 03:58:26;;;;;;;11.60;5.85;;;4.70;99.90;;;;;;5034459;28;20030;-74
2021/12/10 04:00:55;;;;;;;8.50;6.22;;;4.70;99.90;;;;;;5034366;28;20075;-71
2021/12/10 04:03:24;;;;;;;9.13;6.00;;;4.70;99.90;;;;;;5033974;28;20037;-76
2021/12/10 04:05:53;;;;;;;9.27;6.25;;;4.70;99.90;;;;;;5034255;28;20467;-74
2021/12/10 04:08:19;;;;;;;10.45;6.78;;;4.70;99.90;;;;;;5034173;28;20053;-73
2021/12/10 04:10:46;;;;;;;9.35;6.03;;;4.60;99.90;;;;;;5033983;28;20076;-73
2021/12/10 04:13:12;;;;;;;9.52;6.78;;;4.60;99.90;;;;;;5034150;28;20097;-76
2021/12/10 04:15:39;;;;;;;12.25;7.05;;;4.60;99.90;;;;;;5034046;28;20553;-76
2021/12/10 04:18:06;;;;;;;10.13;6.50;;;4.50;99.90;;;;;;5034289;28;20025;-73
2021/12/10 04:20:33;;;;;;;10.73;6.93;;;4.50;99.90;;;;;;5034451;28;20026;-73
2021/12/10 04:23:01;;;;;;;9.32;7.03;;;4.50;99.90;;;;;;5033582;28;20098;-77
2021/12/10 04:25:27;;;;;;;7.93;6.03;;;4.50;99.90;;;;;;5032687;28;20025;-72
2021/12/10 04:27:56;;;;;;;10.57;6.60;;;4.50;99.90;;;;;;5033677;28;20112;-76
2021/12/10 04:30:23;;;;;;;8.95;6.47;;;4.50;99.90;;;;;;5033211;28;20024;-76
2021/12/10 04:32:50;;;;;;;7.95;6.15;;;4.50;99.90;;;;;;5032848;28;20025;-74
2021/12/10 04:35:18;;;;;;;12.02;6.50;;;4.50;99.90;;;;;;5032866;28;20057;-76
2021/12/10 04:37:44;;;;;;;10.10;7.25;;;4.60;99.90;;;;;;5033247;28;20028;-73
2021/12/10 04:40:13;;;;;;;11.30;7.07;;;4.60;99.90;;;;;;5033868;28;20022;-76
2021/12/10 04:42:39;;;;;;;9.85;6.60;;;4.60;99.90;;;;;;5032715;28;20042;-73
2021/12/10 04:45:06;;;;;;;8.82;6.20;;;4.60;99.90;;;;;;5032865;28;20041;-73
2021/12/10 04:47:33;;;;;;;10.77;6.47;;;4.60;99.90;;;;;;5033341;28;20032;-75
2021/12/10 04:49:59;;;;;;;10.15;6.57;;;4.70;99.90;;;;;;5033961;28;20029;-73
2021/12/10 04:52:25;;;;;;;8.40;5.93;;;4.70;99.90;;;;;;5033116;28;20046;-73
2021/12/10 04:54:51;;;;;;;9.88;6.05;;;4.70;99.90;;;;;;5032097;28;20108;-73
2021/12/10 04:57:18;;;;;;;8.13;6.70;;;4.70;99.90;;;;;;5033221;28;20089;-75
2021/12/10 04:59:44;;;;;;;8.43;6.22;;;4.70;99.90;;;;;;5033147;28;20020;-75
2021/12/10 05:02:13;;;;;;;10.23;7.00;;;4.70;99.90;;;;;;5033353;28;20033;-75
2021/12/10 05:04:43;;;;;;;8.63;6.85;;;4.70;99.90;;;;;;5031564;28;20698;-73
2021/12/10 05:07:11;;;;;;;8.55;6.53;;;4.70;99.90;;;;;;5033118;28;20068;-74
2021/12/10 05:09:37;;;;;;;8.38;5.97;;;4.70;99.90;;;;;;5031739;28;20020;-72
2021/12/10 05:12:03;;;;;;;9.57;6.25;;;4.70;99.90;;;;;;5032918;28;20091;-71
2021/12/10 05:14:31;;;;;;;9.48;6.47;;;4.70;99.90;;;;;;5032922;28;20373;-73
2021/12/10 05:17:02;;;;;;;7.65;6.00;;;4.80;99.90;;;;;;5032622;28;20032;-73
2021/12/10 05:19:28;;;;;;;10.70;6.65;;;4.90;99.90;;;;;;5032330;28;20021;-71
2021/12/10 05:21:55;;;;;;;11.02;6.85;;;4.90;99.90;;;;;;5032586;28;20032;-74
2021/12/10 05:24:21;;;;;;;10.75;6.60;;;4.90;99.90;;;;;;5032453;28;20087;-73
2021/12/10 05:26:47;;;;;;;9.10;6.30;;;5.00;99.90;;;;;;5032712;28;20048;-74
2021/12/10 05:29:14;;;;;;;10.48;7.32;;;5.00;99.90;;;;;;5032720;28;20029;-74
2021/12/10 05:31:43;;;;;;;8.82;6.35;;;5.10;99.90;;;;;;5032812;28;20021;-73
2021/12/10 05:34:09;;;;;;;8.73;6.38;;;5.00;99.90;;;;;;5032641;28;20044;-73
2021/12/10 05:36:35;;;;;;;10.63;7.28;;;5.00;99.90;;;;;;5032392;28;20422;-73
2021/12/10 05:39:03;;;;;;;9.98;6.70;;;5.00;99.90;;;;;;5030066;28;20060;-75
2021/12/10 05:41:28;;;;;;;11.07;6.90;;;5.00;99.90;;;;;;5031695;28;20052;-73
2021/12/10 05:43:54;;;;;;;10.35;7.43;;;5.00;99.90;;;;;;5031748;28;20508;-74
2021/12/10 05:46:20;;;;;;;8.50;6.03;;;4.90;99.90;;;;;;5032895;28;20036;-74
2021/12/10 05:48:46;;;;;;;8.45;6.25;;;4.90;99.90;;;;;;5032087;28;20563;-73
2021/12/10 05:51:11;;;;;;;7.90;5.68;;;5.00;99.90;;;;;;5031622;28;20026;-73
2021/12/10 05:53:37;;;;;;;6.97;5.50;;;5.00;99.90;;;;;;5032321;28;20033;-73
2021/12/10 05:56:04;;;;;;;10.57;6.78;;;5.20;99.90;;;;;;5032714;28;20470;-75
2021/12/10 05:58:30;;;;;;;8.52;6.00;;;5.30;99.90;;;;;;5032482;28;20072;-73
2021/12/10 06:01:02;;;;;;;8.30;5.78;;;5.30;99.90;;;;;;5031791;28;20030;-74
2021/12/10 06:03:28;;;;;;;8.50;6.35;;;5.20;99.90;;;;;;5032689;28;20018;-73
2021/12/10 06:05:54;;;;;;;8.63;6.47;;;5.20;99.90;;;;;;5032062;28;20025;-73
2021/12/10 06:08:21;;;;;;;8.45;6.22;;;5.10;99.90;;;;;;5032496;28;20386;-74
2021/12/10 06:10:48;;;;;;;14.88;6.60;;;5.10;99.90;;;;;;5031823;28;20435;-74
2021/12/10 06:13:15;;;;;;;9.65;6.13;;;5.00;99.90;;;;;;5031160;28;20474;-77
2021/12/10 06:15:41;;;;;;;12.50;6.75;;;5.00;99.90;;;;;;5031968;28;20493;-76
2021/12/10 06:18:08;;;;;;;13.02;7.40;;;4.90;99.90;;;;;;5032184;28;20067;-77
2021/12/10 06:20:47;;;;;;;8.98;6.07;;;4.90;99.90;;;;;;5032214;28;20040;-75
2021/12/10 06:23:14;;;;;;;8.57;5.57;;;4.90;99.90;;;;;;5031089;28;20029;-77
2021/12/10 06:25:40;;;;;;;7.07;5.53;;;4.90;99.90;;;;;;5031532;28;20017;-73
2021/12/10 06:28:07;;;;;;;8.23;5.82;;;4.90;99.90;;;;;;5030706;28;20069;-74
2021/12/10 06:30:37;;;;;;;8.05;5.68;;;4.90;99.90;;;;;;5031414;28;20022;-74
2021/12/10 06:33:07;;;;;;;9.23;6.43;;;4.90;99.90;;;;;;5031691;28;20080;-74
2021/12/10 06:35:34;;;;;;;9.45;6.45;;;4.90;99.90;;;;;;5031402;28;20026;-77
2021/12/10 06:38:00;;;;;;;15.05;6.85;;;5.00;99.90;;;;;;5031283;28;20029;-75
2021/12/10 06:40:28;;;;;;;9.85;6.82;;;5.00;99.90;;;;;;5031582;28;20473;-75
2021/12/10 06:42:54;;;;;;;10.38;7.43;;;5.00;99.90;;;;;;5031949;28;20428;-73
2021/12/10 06:45:23;;;;;;;11.90;7.78;;;4.90;99.90;;;;;;5031533;28;20021;-76
2021/12/10 06:47:50;;;;;;;13.40;7.85;;;4.80;99.90;;;;;;5031854;28;20033;-73
2021/12/10 06:50:22;;;;;;;12.13;8.25;;;4.80;99.90;;;;;;5031626;28;20059;-73
2021/12/10 06:52:48;;;;;;;14.18;8.68;;;4.70;99.90;;;;;;5033046;28;20048;-77
2021/12/10 06:55:14;;;;;;;15.18;9.40;;;4.60;99.90;;;;;;5035742;28;20022;-77
2021/12/10 06:57:40;;;;;;;14.07;9.43;;;4.60;99.90;;;;;;5035598;28;20338;-76
2021/12/10 07:00:16;;;;;;;13.88;7.57;;;4.60;99.90;;;;;;5034614;28;20026;-73
2021/12/10 07:02:43;;;;;;;11.77;7.03;;;4.60;99.90;;;;;;5035383;28;20086;-77
2021/12/10 07:05:09;;;;;;;7.82;5.80;;;4.70;99.90;;;;;;5035385;28;20104;-77
2021/12/10 07:07:36;;;;;;;10.15;6.10;;;4.90;99.90;;;;;;5033510;28;20045;-75
2021/12/10 07:10:03;;;;;;;9.82;6.82;;;5.10;99.90;;;;;;5035185;28;20529;-77
2021/12/10 07:12:28;;;;;;;10.52;7.07;;;5.30;99.90;;;;;;5035101;28;20029;-73
2021/12/10 07:14:56;;;;;;;12.05;6.20;;;5.50;99.90;;;;;;5034899;28;20496;-76
2021/12/10 07:17:22;;;;;;;10.15;6.80;;;5.80;99.90;;;;;;5034791;28;20045;-77
2021/12/10 07:19:48;;;;;;;7.60;5.47;;;5.90;99.90;;;;;;5035348;28;20068;-73
2021/12/10 07:22:14;;;;;;;7.75;5.45;;;5.90;99.90;;;;;;5035260;28;20021;-73
2021/12/10 07:24:39;;;;;;;8.60;6.10;;;6.00;99.90;;;;;;5035788;28;20429;-73
2021/12/10 07:27:09;;;;;;;9.05;6.13;;;6.20;99.90;;;;;;5035170;28;20030;-74
2021/12/10 07:29:35;;;;;;;10.23;6.63;;;6.50;99.90;;;;;;5035455;28;20031;-77
2021/12/10 07:32:01;;;;;;;9.32;5.80;;;6.50;99.90;;;;;;5034068;28;20100;-77
2021/12/10 07:34:27;;;;;;;8.88;5.93;;;6.70;99.90;;;;;;5034634;28;20061;-74
2021/12/10 07:36:52;;;;;;;8.70;6.13;;;7.00;99.90;;;;;;5034511;28;20071;-72
2021/12/10 07:39:18;;;;;;;10.48;7.07;;;7.20;99.90;;;;;;5033635;28;20067;-76
2021/12/10 07:41:44;;;;;;;9.23;6.10;;;7.30;99.90;;;;;;5033807;28;20056;-73
2021/12/10 07:44:10;;;;;;;9.20;6.45;;;7.40;99.90;;;;;;5032091;28;20021;-75
2021/12/10 07:46:37;;;;;;;9.75;6.55;;;7.50;99.90;;;;;;5033912;28;20021;-77
2021/12/10 07:49:06;;;;;;;11.27;6.95;;;7.50;99.90;;;;;;5033578;28;20448;-78
2021/12/10 07:51:32;;;;;;;9.40;7.10;;;7.90;99.90;;;;;;5033472;28;20068;-74
2021/12/10 07:54:00;;;;;;;10.57;7.40;;;8.10;99.90;;;;;;5033785;28;20037;-75
2021/12/10 07:56:30;;;;;;;10.77;6.68;;;8.20;99.90;;;;;;5031310;28;20374;-72
2021/12/10 07:58:56;;;;;;;8.80;6.50;;;8.20;99.90;;;;;;5033801;28;20025;-76
2021/12/10 08:01:25;;;;;;;10.20;6.57;;;8.00;99.90;;;;;;5033680;28;20842;-76
2021/12/10 08:03:53;;;;;;;9.32;6.45;;;8.10;99.90;;;;;;5031789;28;20393;-78
2021/12/10 08:06:21;;;;;;;9.48;6.30;;;8.30;99.90;;;;;;5033598;28;20516;-77
2021/12/10 08:08:48;;;;;;;11.18;6.63;;;8.20;99.90;;;;;;5032614;28;20120;-77
2021/12/10 08:11:14;;;;;;;8.98;6.68;;;7.80;99.90;;;;;;5032423;28;20025;-73
2021/12/10 08:13:41;;;;;;;12.23;7.00;;;7.50;99.90;;;;;;5033127;28;20017;-73
2021/12/10 08:16:06;;;;;;;11.32;6.53;;;7.30;99.90;;;;;;5033455;28;20024;-76
2021/12/10 08:18:32;;;;;;;9.63;6.38;;;7.00;99.90;;;;;;5033554;28;20022;-74
2021/12/10 08:20:58;;;;;;;11.23;7.03;;;6.90;99.90;;;;;;5033629;28;20148;-77
2021/12/10 08:23:24;;;;;;;10.05;6.43;;;7.00;99.90;;;;;;5033616;28;20056;-75
2021/12/10 08:25:51;;;;;;;7.63;5.93;;;7.00;99.90;;;;;;5034003;28;20025;-77
2021/12/10 08:28:21;;;;;;;8.00;5.70;;;7.50;99.90;;;;;;5031950;28;20049;-80
2021/12/10 08:30:48;;;;;;;9.52;6.20;;;8.30;99.90;;;;;;5034214;28;20025;-78
2021/12/10 08:33:15;;;;;;;8.27;5.57;;;9.20;99.90;;;;;;5034127;28;20028;-79
2021/12/10 08:35:45;;;;;;;11.70;5.60;;;9.60;99.90;;;;;;5033403;28;20462;-74
2021/12/10 08:38:12;;;;;;;7.53;5.32;;;10.00;99.90;;;;;;5033184;28;20026;-78
2021/12/10 08:40:45;;;;;;;10.48;5.63;;;10.30;99.90;;;;;;5033320;28;20061;-74
2021/12/10 08:43:11;;;;;;;8.73;5.47;;;10.00;99.90;;;;;;5032902;28;20018;-76
2021/12/10 08:45:38;;;;;;;7.35;5.57;;;9.70;99.90;;;;;;5032855;28;20040;-77
2021/12/10 08:48:05;;;;;;;11.52;5.25;;;9.20;99.90;;;;;;5032790;28;20087;-75
2021/12/10 08:50:32;;;;;;;12.13;5.32;;;9.10;99.90;;;;;;5032695;28;20405;-75
2021/12/10 08:53:03;;;;;;;7.93;5.22;;;9.00;99.90;;;;;;5033312;28;20049;-74
2021/12/10 08:55:32;;;;;;;9.75;6.00;;;9.10;99.90;;;;;;5033014;28;20105;-73
2021/12/10 08:57:58;;;;;;;7.32;4.90;;;9.00;99.90;;;;;;5032177;28;20112;-79
2021/12/10 09:00:25;;;;;;;8.88;5.70;;;8.90;99.90;;;;;;5031652;28;20100;-72
2021/12/10 09:02:53;;;;;;;7.93;5.38;;;8.80;99.90;;;;;;5032777;28;20044;-71
2021/12/10 09:05:19;;;;;;;8.23;5.07;;;8.60;99.90;;;;;;5032664;28;20029;-76
2021/12/10 09:07:46;;;;;;;9.23;5.38;;;8.40;99.90;;;;;;5032321;28;20071;-75
2021/12/10 09:10:15;;;;;;;8.13;4.88;;;8.20;99.90;;;;;;5032336;28;20366;-73
2021/12/10 09:12:41;;;;;;;7.63;5.38;;;8.10;99.90;;;;;;5024235;28;20024;-78
2021/12/10 09:15:10;;;;;;;8.65;5.28;;;8.00;99.90;;;;;;5030076;28;20017;-78
2021/12/10 09:17:39;;;;;;;8.65;5.32;;;8.10;99.90;;;;;;5031698;28;20417;-79
2021/12/10 09:20:10;;;;;;;7.75;5.13;;;8.10;99.90;;;;;;5030542;28;20025;-78
2021/12/10 09:22:36;;;;;;;9.75;4.72;;;8.10;99.90;;;;;;5032475;28;20492;-80
2021/12/10 09:25:04;;;;;;;9.23;5.35;;;8.20;99.90;;;;;;5032812;28;20030;-80
2021/12/10 09:27:29;;;;;;;7.82;5.30;;;8.20;99.90;;;;;;5032327;28;20389;-72
2021/12/10 09:29:56;;;;;;;8.88;5.10;;;8.20;99.90;;;;;;5031794;28;20017;-79
2021/12/10 09:32:24;;;;;;;7.47;5.10;;;8.30;99.90;;;;;;5031534;28;20032;-73
2021/12/10 09:34:52;;;;;;;6.88;5.40;;;8.50;99.90;;;;;;5031428;28;20454;-75
2021/12/10 09:37:21;;;;;;;8.50;5.22;;;8.60;99.90;;;;;;5031229;28;20401;-75
2021/12/10 09:39:49;;;;;;;7.13;5.22;;;8.90;99.90;;;;;;5031259;28;20079;-72
2021/12/10 09:42:16;;;;;;;9.20;6.30;;;9.10;99.90;;;;;;5031131;28;20017;-78
2021/12/10 09:44:42;;;;;;;10.05;6.30;;;9.20;99.90;;;;;;5031607;28;20025;-78
2021/12/10 09:47:14;;;;;;;6.38;4.78;;;9.40;99.90;;;;;;5031000;28;20033;-77
2021/12/10 09:49:42;;;;;;;6.97;5.13;;;9.60;99.90;;;;;;5031953;28;20033;-80
2021/12/10 09:52:09;;;;;;;6.70;4.30;;;9.70;99.90;;;;;;5031576;28;20061;-77
2021/12/10 09:54:36;;;;;;;7.10;5.05;;;9.70;99.90;;;;;;5031830;28;20022;-78
2021/12/10 09:57:10;;;;;;;5.15;4.00;;;9.50;99.90;;;;;;5030739;28;20025;-80
2021/12/10 09:59:41;;;;;;;5.60;4.20;;;9.50;99.90;;;;;;5031304;28;20104;-79
2021/12/10 10:02:07;;;;;;;6.30;4.90;;;9.50;99.90;;;;;;5031585;28;20052;-77
2021/12/10 10:04:36;;;;;;;10.07;4.82;;;9.60;99.90;;;;;;5032054;28;20069;-81
2021/12/10 10:07:10;;;;;;;6.32;4.53;;;9.50;99.90;;;;;;5031801;28;20029;-80
2021/12/10 10:09:36;;;;;;;6.53;4.15;;;9.40;99.90;;;;;;5032168;28;20502;-74
2021/12/10 10:12:08;;;;;;;4.95;3.85;;;9.50;99.90;;;;;;5032124;28;20058;-75
2021/12/10 10:14:35;;;;;;;8.00;4.93;;;9.60;99.90;;;;;;5031087;28;20109;-79
2021/12/10 10:17:01;;;;;;;6.63;4.55;;;9.50;99.90;;;;;;5030639;28;20009;-78
2021/12/10 10:19:27;;;;;;;5.95;4.97;;;9.50;99.90;;;;;;5031098;28;20373;-72
2021/12/10 10:21:56;;;;;;;8.27;5.05;;;9.70;99.90;;;;;;5031395;28;20021;-71
2021/12/10 10:24:25;;;;;;;6.53;4.68;;;10.00;99.90;;;;;;5030953;28;20156;-79
2021/12/10 10:27:09;;;;;;;5.65;4.43;;;10.20;99.90;;;;;;5030872;28;20030;-74
2021/12/10 10:29:38;;;;;;;4.95;4.10;;;10.20;99.90;;;;;;5034424;28;20033;-80
2021/12/10 10:32:13;;;;;;;10.15;4.18;;;10.40;99.90;;;;;;5033755;28;20018;-81
2021/12/10 10:34:43;;;;;;;6.18;4.28;;;10.50;99.90;;;;;;5034070;28;20021;-81
2021/12/10 10:37:10;;;;;;;6.47;4.70;;;10.60;99.90;;;;;;5033974;28;20044;-81
2021/12/10 10:39:36;;;;;;;5.78;4.10;;;10.40;99.90;;;;;;5035245;28;20029;-80
2021/12/10 10:42:06;;;;;;;7.82;5.60;;;10.40;99.90;;;;;;5034078;28;20028;-80
2021/12/10 10:44:32;;;;;;;8.73;4.50;;;10.30;99.90;;;;;;5034659;28;20068;-77
2021/12/10 10:47:00;;;;;;;5.00;3.85;;;10.20;99.90;;;;;;5034921;28;20013;-78
2021/12/10 10:49:32;;;;;;;6.32;4.85;;;10.00;99.90;;;;;;5033835;28;20072;-78
2021/12/10 10:52:10;;;;;;;5.60;4.13;;;9.90;99.90;;;;;;5033102;28;20037;-79
2021/12/10 10:54:36;;;;;;;10.70;4.20;;;9.70;99.90;;;;;;5033622;28;20037;-78
2021/12/10 10:57:13;;;;;;;6.18;4.50;;;9.50;99.90;;;;;;5034036;28;20768;-80
2021/12/10 10:59:39;;;;;;;6.72;4.40;;;9.40;99.90;;;;;;5030032;28;20026;-72
2021/12/10 11:02:08;;;;;;;6.32;4.65;;;9.40;99.90;;;;;;5034637;28;20075;-74
2021/12/10 11:04:44;;;;;;;8.93;5.00;;;9.20;99.90;;;;;;5034414;28;20033;-72
2021/12/10 11:07:21;;;;;;;8.82;4.65;;;9.10;99.90;;;;;;5032161;28;20061;-75
2021/12/10 11:09:53;;;;;;;6.50;5.20;;;9.10;99.90;;;;;;5034131;28;20022;-77
2021/12/10 11:12:32;;;;;;;7.00;5.30;;;9.00;99.90;;;;;;5033798;28;20013;-77
2021/12/10 11:15:05;;;;;;;6.55;4.80;;;9.10;99.90;;;;;;5033929;28;20017;-76
2021/12/10 11:17:43;;;;;;;8.05;5.45;;;9.20;99.90;;;;;;5033940;28;20031;-78
2021/12/10 11:20:34;;;;;;;9.00;5.45;;;9.10;99.90;;;;;;5034096;28;20104;-77
2021/12/10 11:23:04;;;;;;;10.82;5.47;;;9.10;99.90;;;;;;5020826;28;20052;-77
2021/12/10 11:25:39;;;;;;;8.48;5.05;;;9.10;99.90;;;;;;5034330;28;20034;-77
2021/12/10 11:28:30;;;;;;;6.45;4.63;;;9.10;99.90;;;;;;5031975;28;20083;-76
2021/12/10 11:31:03;;;;;;;7.07;5.03;;;9.00;99.90;;;;;;5026675;28;20034;-73
2021/12/10 11:33:42;;;;;;;6.72;4.78;;;9.00;99.90;;;;;;5033371;28;20071;-77
2021/12/10 11:36:15;;;;;;;7.07;5.20;;;8.90;99.90;;;;;;5033288;28;20033;-74
2021/12/10 11:38:44;;;;;;;8.02;5.35;;;9.00;99.90;;;;;;5032404;28;20124;-76
2021/12/10 11:41:22;;;;;;;6.82;5.20;;;9.00;99.90;;;;;;5033649;28;20017;-76
2021/12/10 11:44:18;;;;;;;8.77;5.30;;;8.90;99.90;;;;;;5033834;28;20075;-74
2021/12/10 11:49:33;;;;;;;8.23;5.53;;;9.00;99.90;;;;;;5034979;28;20029;-75
2021/12/10 11:52:02;;;;;;;8.02;5.45;;;8.90;99.90;;;;;;5034543;28;20482;-73
2021/12/10 11:54:38;;;;;;;10.15;6.43;;;8.80;99.90;;;;;;5033698;28;20116;-77
2021/12/10 11:57:10;;;;;;;10.82;6.05;;;8.70;99.90;;;;;;5034262;28;20156;-77
2021/12/10 11:59:40;;;;;;;9.93;6.60;;;8.60;99.90;;;;;;5034451;28;20460;-77
2021/12/10 12:02:37;;;;;;;8.43;5.97;;;8.50;99.90;;;;;;5034122;28;20040;-78
2021/12/10 12:05:09;;;;;;;8.57;6.35;;;8.50;99.90;;;;;;5024091;28;20037;-78
2021/12/10 12:07:40;;;;;;;;;;;8.50;99.90;;;;;;5034846;28;20037;-73
2021/12/10 12:10:25;;;;;;;9.88;6.72;;;8.50;99.90;;;;;;5033818;28;19948;-78
2021/12/10 12:13:05;;;;;;;10.15;6.32;;;8.50;99.90;;;;;;5033708;28;20025;-76
2021/12/10 12:15:40;;;;;;;12.45;6.88;;;8.50;99.90;;;;;;5034246;28;20481;-79
2021/12/10 12:18:14;;;;;;;10.27;7.05;;;8.50;99.90;;;;;;5033935;28;20105;-78
2021/12/10 12:20:43;;;;;;;10.20;6.53;;;8.50;99.90;;;;;;5031316;28;20041;-77
2021/12/10 12:26:01;;;;;;;10.98;7.22;;;8.40;99.90;;;;;;5033292;28;20028;-77
2021/12/10 12:28:28;;;;;;;13.10;7.95;;;8.30;99.90;;;;;;5032781;28;20422;-79
2021/12/10 12:30:56;;;;;;;11.82;8.05;;;8.30;99.90;;;;;;5033438;28;20523;-79
2021/12/10 12:33:24;;;;;;;10.73;7.40;;;8.40;99.90;;;;;;5030565;28;20143;-79
2021/12/10 12:35:51;;;;;;;9.65;6.90;;;8.40;99.90;;;;;;5033222;28;20022;-76
2021/12/10 12:38:29;;;;;;;12.75;7.53;;;8.50;99.90;;;;;;5031969;28;20512;-72
2021/12/10 12:41:26;;;;;;;11.20;7.80;;;8.50;99.90;;;;;;5033549;28;20029;-74
2021/12/10 12:44:13;;;;;;;10.48;7.53;;;8.50;99.90;;;;;;5018013;28;20045;-78
2021/12/10 12:47:00;;;;;;;9.63;6.72;;;8.60;99.90;;;;;;5033648;28;20554;-79
2021/12/10 12:49:30;;;;;;;12.98;6.80;;;8.70;99.90;;;;;;5032598;28;20033;-75
2021/12/10 12:52:07;;;;;;;10.18;7.13;;;8.60;99.90;;;;;;5033548;28;20957;-78
2021/12/10 12:54:36;;;;;;;11.65;7.50;;;8.50;99.90;;;;;;5033739;28;20060;-79
2021/12/10 12:57:05;;;;;;;10.02;7.03;;;8.50;99.90;;;;;;5032961;28;20118;-76
2021/12/10 12:59:31;;;;;;;12.07;7.15;;;8.40;99.90;;;;;;5032699;28;20053;-76
2021/12/10 13:02:01;;;;;;;10.80;7.05;;;8.40;99.90;;;;;;5033417;28;20025;-79
2021/12/10 13:04:36;;;;;;;11.50;7.13;;;8.30;99.90;;;;;;5033605;28;20021;-78
2021/12/10 13:07:15;;;;;;;12.02;7.72;;;8.10;99.90;;;;;;5032903;28;20028;-79
2021/12/10 13:09:53;;;;;;;11.80;7.35;;;8.00;99.90;;;;;;5033423;28;20037;-78
2021/12/10 13:15:28;;;;;;;10.25;6.80;;;7.90;99.90;;;;;;5032184;28;20489;-80
2021/12/10 13:18:00;;;;;;;10.57;6.97;;;8.00;99.90;;;;;;5031677;28;20488;-73